createdAt,value
2018-11-29T00:00:02.063Z,-1.40
2018-11-29T00:02:29.279Z,-1.42
2018-11-29T00:04:56.535Z,-1.33
2018-11-29T00:07:23.716Z,-1.41
2018-11-29T00:09:51.222Z,-1.28
2018-11-29T00:12:18.454Z,-1.44
2018-11-29T00:14:45.636Z,-1.23
2018-11-29T00:17:12.840Z,-1.28
2018-11-29T00:19:41.714Z,-1.35
2018-11-29T00:22:08.888Z,-1.26
2018-11-29T00:24:36.060Z,-1.32
2018-11-29T00:27:03.327Z,-1.39
2018-11-29T00:29:30.507Z,-1.41
2018-11-29T00:31:57.673Z,-1.33
2018-11-29T00:34:24.898Z,-1.24
2018-11-29T00:36:52.088Z,-1.32
2018-11-29T00:39:19.306Z,-1.36
2018-11-29T00:41:46.633Z,-1.47
2018-11-29T00:44:13.801Z,-1.41
2018-11-29T00:46:40.981Z,-1.51
2018-11-29T00:49:08.216Z,-1.45
2018-11-29T00:51:35.395Z,-1.44
2018-11-29T00:54:02.576Z,-1.48
2018-11-29T00:56:29.811Z,-1.50
2018-11-29T00:58:56.985Z,-1.51
2018-11-29T01:01:24.162Z,-1.49
2018-11-29T01:03:51.359Z,-1.56
2018-11-29T01:06:18.546Z,-1.63
2018-11-29T01:08:45.717Z,-1.63
2018-11-29T01:11:12.960Z,-1.59
2018-11-29T01:13:40.257Z,-1.53
2018-11-29T01:16:07.451Z,-1.61
2018-11-29T01:18:34.795Z,-1.63
2018-11-29T01:21:01.980Z,-1.67
2018-11-29T01:23:29.136Z,-1.56
2018-11-29T01:25:56.371Z,-1.63
2018-11-29T01:28:23.527Z,-1.67
2018-11-29T01:30:50.691Z,-1.56
2018-11-29T01:33:17.920Z,-1.68
2018-11-29T01:35:45.119Z,-1.66
2018-11-29T01:38:12.303Z,-1.62
2018-11-29T01:40:39.581Z,-1.55
2018-11-29T01:43:06.766Z,-1.63
2018-11-29T01:45:33.939Z,-1.68
2018-11-29T01:48:01.154Z,-1.58
2018-11-29T01:50:28.436Z,-1.66
2018-11-29T01:52:55.611Z,-1.67
2018-11-29T01:55:22.857Z,-1.71
2018-11-29T01:57:50.597Z,-1.69
2018-11-29T02:00:17.983Z,-1.68
2018-11-29T02:02:47.231Z,-1.66
2018-11-29T02:05:14.403Z,-1.63
2018-11-29T02:07:41.591Z,-1.52
2018-11-29T02:10:15.903Z,-1.58
2018-11-29T02:12:43.195Z,-1.51
2018-11-29T02:15:10.379Z,-1.53
2018-11-29T02:17:37.651Z,-1.55
2018-11-29T02:20:07.218Z,-1.54
2018-11-29T02:22:34.396Z,-1.46
2018-11-29T02:25:01.720Z,-1.60
2018-11-29T02:27:28.984Z,-1.58
2018-11-29T02:29:56.167Z,-1.61
2018-11-29T02:32:23.402Z,-1.63
2018-11-29T02:34:50.654Z,-1.53
2018-11-29T02:37:17.872Z,-1.58
2018-11-29T02:39:45.163Z,-1.56
2018-11-29T02:42:12.387Z,-1.52
2018-11-29T02:44:39.561Z,-1.48
2018-11-29T02:47:06.811Z,-1.45
2018-11-29T02:49:34.051Z,-1.49
2018-11-29T02:52:01.279Z,-1.35
2018-11-29T02:54:28.517Z,-1.44
2018-11-29T02:56:55.683Z,-1.37
2018-11-29T02:59:22.848Z,-1.35
2018-11-29T03:01:50.077Z,-1.18
2018-11-29T03:04:24.877Z,-1.29
2018-11-29T03:06:52.329Z,-1.32
2018-11-29T03:10:27.903Z,-1.37
2018-11-29T03:12:55.313Z,-1.37
2018-11-29T03:15:22.527Z,-1.34
2018-11-29T03:17:49.759Z,-1.21
2018-11-29T03:20:17.003Z,-1.30
2018-11-29T03:22:44.216Z,-1.20
2018-11-29T03:25:12.324Z,-1.22
2018-11-29T03:27:39.564Z,-1.24
2018-11-29T03:30:09.001Z,-1.21
2018-11-29T03:32:36.197Z,-1.38
2018-11-29T03:35:03.543Z,-1.25
2018-11-29T03:37:30.707Z,-1.24
2018-11-29T03:39:57.899Z,-1.24
2018-11-29T03:42:25.122Z,-1.27
2018-11-29T03:44:52.334Z,-1.16
2018-11-29T03:47:19.543Z,-1.26
2018-11-29T03:49:46.827Z,-1.24
2018-11-29T03:52:14.049Z,-1.11
2018-11-29T03:54:41.241Z,-1.20
2018-11-29T03:57:08.470Z,-1.16
2018-11-29T03:59:35.755Z,-1.37
2018-11-29T04:02:03.032Z,-1.25
2018-11-29T04:04:30.299Z,-1.22
2018-11-29T04:06:57.559Z,-1.29
2018-11-29T04:09:24.744Z,-1.34
2018-11-29T04:11:51.962Z,-1.26
2018-11-29T04:14:19.130Z,-1.24
2018-11-29T04:16:46.321Z,-1.30
2018-11-29T04:19:13.555Z,-1.21
2018-11-29T04:21:40.743Z,-1.29
2018-11-29T04:24:07.922Z,-1.30
2018-11-29T04:26:35.139Z,-1.12
2018-11-29T04:29:02.356Z,-1.21
2018-11-29T04:31:29.545Z,-1.18
2018-11-29T04:33:56.789Z,-1.02
2018-11-29T04:36:23.979Z,-1.18
2018-11-29T04:38:51.195Z,-1.21
2018-11-29T04:41:18.424Z,-1.22
2018-11-29T04:43:45.607Z,-1.11
2018-11-29T04:46:47.998Z,-1.21
2018-11-29T04:49:15.207Z,-1.11
2018-11-29T04:51:42.466Z,-1.10
2018-11-29T04:54:09.993Z,-1.03
2018-11-29T04:56:37.239Z,-1.28
2018-11-29T04:59:04.539Z,-1.26
2018-11-29T05:01:31.831Z,-1.27
2018-11-29T05:03:59.012Z,-1.30
2018-11-29T05:06:26.192Z,-1.37
2018-11-29T05:08:53.484Z,-1.18
2018-11-29T05:11:20.731Z,-1.20
2018-11-29T05:13:47.903Z,-1.34
2018-11-29T05:16:15.152Z,-1.39
2018-11-29T05:18:42.340Z,-1.26
2018-11-29T05:21:09.545Z,-1.26
2018-11-29T05:23:36.936Z,-1.25
2018-11-29T05:26:04.445Z,-1.33
2018-11-29T05:28:31.620Z,-1.39
2018-11-29T05:30:58.870Z,-1.34
2018-11-29T05:33:26.027Z,-1.27
2018-11-29T05:35:53.203Z,-1.37
2018-11-29T05:38:20.447Z,-1.36
2018-11-29T05:40:47.616Z,-1.28
2018-11-29T05:43:14.796Z,-1.29
2018-11-29T05:45:42.042Z,-1.36
2018-11-29T05:48:09.247Z,-1.27
2018-11-29T05:50:36.419Z,-1.21
2018-11-29T05:53:03.707Z,-1.30
2018-11-29T05:55:30.865Z,-1.12
2018-11-29T05:57:58.059Z,-1.20
2018-11-29T06:00:25.413Z,-1.31
2018-11-29T06:02:52.656Z,-1.24
2018-11-29T06:05:19.876Z,-1.14
2018-11-29T06:07:47.095Z,-1.23
2018-11-29T06:10:17.017Z,-1.20
2018-11-29T06:12:44.227Z,-1.20
2018-11-29T06:15:11.581Z,-1.12
2018-11-29T06:17:38.906Z,-1.19
2018-11-29T06:20:08.795Z,-1.24
2018-11-29T06:22:36.022Z,-1.17
2018-11-29T06:25:04.152Z,-1.15
2018-11-29T06:27:31.967Z,-1.08
2018-11-29T06:29:59.430Z,-1.04
2018-11-29T06:32:26.820Z,-1.19
2018-11-29T06:34:53.975Z,-1.12
2018-11-29T06:37:21.224Z,-1.12
2018-11-29T06:39:48.396Z,-1.05
2018-11-29T06:42:15.580Z,-1.09
2018-11-29T06:44:42.790Z,-0.99
2018-11-29T06:47:10.051Z,-1.04
2018-11-29T06:49:37.236Z,-1.12
2018-11-29T06:52:04.816Z,-1.11
2018-11-29T06:54:31.975Z,-1.20
2018-11-29T06:56:59.143Z,-1.17
2018-11-29T06:59:26.404Z,-1.19
2018-11-29T07:01:53.569Z,-0.98
2018-11-29T07:04:20.814Z,-1.21
2018-11-29T07:06:48.031Z,-1.18
2018-11-29T07:09:15.291Z,-1.12
2018-11-29T07:11:42.478Z,-1.22
2018-11-29T07:14:09.729Z,-1.28
2018-11-29T07:16:36.900Z,-1.27
2018-11-29T07:19:04.373Z,-1.16
2018-11-29T07:21:54.491Z,-1.04
2018-11-29T07:24:22.234Z,-1.07
2018-11-29T07:26:49.406Z,-1.08
2018-11-29T07:29:17.114Z,-0.99
2018-11-29T07:31:43.971Z,-1.00
2018-11-29T07:34:11.167Z,-0.95
2018-11-29T07:36:38.383Z,-1.03
2018-11-29T07:39:08.599Z,-1.09
2018-11-29T07:41:36.785Z,-0.96
2018-11-29T07:44:04.139Z,-1.03
2018-11-29T07:46:31.351Z,-1.00
2018-11-29T07:48:58.550Z,-0.92
2018-11-29T07:51:25.803Z,-1.00
2018-11-29T07:53:53.156Z,-0.99
2018-11-29T07:56:20.339Z,-0.81
2018-11-29T07:58:51.532Z,-0.76
2018-11-29T08:01:14.825Z,-0.51
2018-11-29T08:03:41.994Z,-0.44
2018-11-29T08:06:09.359Z,-0.49
2018-11-29T08:08:36.522Z,-0.47
2018-11-29T08:11:03.701Z,-0.69
2018-11-29T08:13:30.999Z,-0.57
2018-11-29T08:15:58.280Z,-0.45
2018-11-29T08:18:25.462Z,-0.44
2018-11-29T08:20:52.678Z,-0.46
2018-11-29T08:23:19.891Z,-0.43
2018-11-29T08:25:47.092Z,-0.65
2018-11-29T08:28:14.371Z,-0.54
2018-11-29T08:30:41.532Z,-0.40
2018-11-29T08:33:08.740Z,-0.36
2018-11-29T08:35:36.021Z,-0.19
2018-11-29T08:38:03.692Z,0.15
2018-11-29T08:40:30.520Z,0.11
2018-11-29T08:42:57.751Z,0.28
2018-11-29T08:45:24.927Z,0.58
2018-11-29T08:47:52.159Z,0.78
2018-11-29T08:50:19.426Z,0.81
2018-11-29T08:52:46.646Z,0.84
2018-11-29T08:55:15.832Z,0.78
2018-11-29T08:57:43.132Z,0.86
2018-11-29T09:00:11.783Z,0.99
2018-11-29T09:02:38.980Z,0.90
2018-11-29T09:05:07.059Z,0.97
2018-11-29T09:07:34.272Z,0.92
2018-11-29T09:10:01.435Z,1.03
2018-11-29T09:12:28.679Z,1.18
2018-11-29T09:14:55.845Z,1.59
2018-11-29T09:17:23.015Z,1.25
2018-11-29T09:19:50.207Z,1.31
2018-11-29T09:22:17.964Z,1.17
2018-11-29T09:24:44.603Z,1.22
2018-11-29T09:27:11.840Z,1.10
2018-11-29T09:29:38.999Z,0.96
2018-11-29T09:32:06.172Z,1.08
2018-11-29T09:34:33.384Z,0.98
2018-11-29T09:37:00.537Z,1.17
2018-11-29T09:39:27.703Z,1.16
2018-11-29T09:41:54.919Z,1.13
2018-11-29T09:44:22.114Z,1.19
2018-11-29T09:46:49.329Z,1.24
2018-11-29T09:49:16.752Z,1.20
2018-11-29T09:51:43.947Z,1.06
2018-11-29T09:54:11.172Z,1.11
2018-11-29T09:56:38.565Z,1.26
2018-11-29T09:59:05.816Z,1.19
2018-11-29T10:01:33.241Z,1.18
2018-11-29T10:04:00.498Z,1.37
2018-11-29T10:06:27.732Z,1.38
2018-11-29T10:08:55.024Z,1.41
2018-11-29T10:11:22.256Z,1.34
2018-11-29T10:13:49.452Z,1.29
2018-11-29T10:16:16.699Z,1.36
2018-11-29T10:18:44.031Z,1.56
2018-11-29T10:21:11.271Z,1.35
2018-11-29T10:23:38.443Z,1.37
2018-11-29T10:26:05.746Z,1.57
2018-11-29T10:28:32.925Z,1.41
2018-11-29T10:31:01.551Z,1.49
2018-11-29T10:33:28.789Z,1.43
2018-11-29T10:35:58.998Z,1.53
2018-11-29T10:38:23.293Z,1.75
2018-11-29T10:40:50.610Z,1.87
2018-11-29T10:43:17.868Z,1.74
2018-11-29T10:45:45.025Z,1.80
2018-11-29T10:48:15.350Z,1.88
2018-11-29T10:50:42.644Z,1.86
2018-11-29T10:53:09.882Z,2.06
2018-11-29T10:55:37.899Z,1.87
2018-11-29T10:58:05.346Z,2.09
2018-11-29T11:00:33.859Z,2.07
2018-11-29T11:03:02.878Z,2.15
2018-11-29T11:05:30.635Z,2.39
2018-11-29T11:07:58.125Z,2.45
2018-11-29T11:10:25.367Z,2.46
2018-11-29T11:12:52.559Z,2.38
2018-11-29T11:15:19.738Z,2.63
2018-11-29T11:17:46.949Z,2.41
2018-11-29T11:20:14.117Z,2.69
2018-11-29T11:22:41.302Z,2.69
2018-11-29T11:25:09.511Z,2.72
2018-11-29T11:27:36.715Z,2.78
2018-11-29T11:30:12.715Z,2.72
2018-11-29T11:32:39.887Z,2.80
2018-11-29T11:35:07.230Z,2.76
2018-11-29T11:37:34.472Z,2.74
2018-11-29T11:40:01.663Z,2.74
2018-11-29T11:42:28.816Z,2.90
2018-11-29T11:44:56.143Z,2.80
2018-11-29T11:47:23.290Z,3.05
2018-11-29T11:49:50.504Z,2.99
2018-11-29T11:52:17.727Z,2.86
2018-11-29T11:54:44.889Z,2.97
2018-11-29T11:57:12.179Z,2.94
2018-11-29T11:59:39.398Z,3.00
2018-11-29T12:02:06.603Z,3.02
2018-11-29T12:04:33.804Z,3.14
2018-11-29T12:07:01.030Z,3.35
2018-11-29T12:09:28.288Z,3.18
2018-11-29T12:11:55.442Z,3.20
2018-11-29T12:14:22.669Z,3.22
2018-11-29T12:16:49.844Z,3.23
2018-11-29T12:19:17.018Z,3.22
2018-11-29T12:21:44.256Z,3.19
2018-11-29T12:24:11.415Z,3.31
2018-11-29T12:26:38.575Z,3.39
2018-11-29T12:29:06.452Z,3.38
2018-11-29T12:31:33.634Z,3.33
2018-11-29T12:34:00.809Z,3.15
2018-11-29T12:36:28.023Z,3.19
2018-11-29T12:38:55.171Z,3.11
2018-11-29T12:41:22.406Z,3.15
2018-11-29T12:43:49.642Z,3.15
2018-11-29T12:46:16.874Z,3.31
2018-11-29T12:48:44.043Z,3.26
2018-11-29T12:51:11.235Z,3.26
2018-11-29T12:53:38.407Z,3.45
2018-11-29T12:56:05.612Z,3.27
2018-11-29T12:58:32.874Z,3.26
2018-11-29T13:01:00.246Z,3.34
2018-11-29T13:03:27.387Z,3.43
2018-11-29T13:05:54.619Z,3.33
2018-11-29T13:08:24.171Z,3.47
2018-11-29T13:10:51.800Z,3.40
2018-11-29T13:13:19.036Z,3.49
2018-11-29T13:15:46.244Z,3.50
2018-11-29T13:18:13.391Z,3.52
2018-11-29T13:20:40.662Z,3.49
2018-11-29T13:23:07.925Z,3.58
2018-11-29T13:25:35.114Z,3.60
2018-11-29T13:28:02.414Z,3.48
2018-11-29T13:30:29.623Z,3.49
2018-11-29T13:32:56.992Z,3.45
2018-11-29T13:35:27.805Z,3.39
2018-11-29T13:37:59.276Z,3.35
2018-11-29T13:40:26.887Z,3.43
2018-11-29T13:42:54.093Z,3.36
2018-11-29T13:45:21.339Z,3.37
2018-11-29T13:47:48.580Z,3.39
2018-11-29T13:50:16.495Z,3.38
2018-11-29T13:52:43.789Z,3.38
2018-11-29T13:55:11.834Z,3.24
2018-11-29T13:57:39.485Z,3.31
2018-11-29T14:00:11.227Z,3.18
2018-11-29T14:02:38.589Z,3.20
2018-11-29T14:05:06.429Z,3.13
2018-11-29T14:07:33.658Z,3.12
2018-11-29T14:10:00.940Z,3.13
2018-11-29T14:12:28.103Z,3.15
2018-11-29T14:14:55.300Z,3.07
2018-11-29T14:17:22.459Z,3.06
2018-11-29T14:19:49.615Z,3.10
2018-11-29T14:22:16.911Z,3.10
2018-11-29T14:24:44.105Z,3.13
2018-11-29T14:27:11.277Z,3.02
2018-11-29T14:29:38.555Z,3.04
2018-11-29T14:32:05.809Z,3.04
2018-11-29T14:34:33.194Z,3.05
2018-11-29T14:37:00.548Z,2.97
2018-11-29T14:39:27.807Z,2.94
2018-11-29T14:41:54.966Z,3.03
2018-11-29T14:44:22.168Z,2.86
2018-11-29T14:46:49.390Z,2.90
2018-11-29T14:49:16.556Z,2.87
2018-11-29T14:51:47.953Z,2.82
2018-11-29T14:54:11.163Z,2.74
2018-11-29T14:56:38.372Z,2.67
2018-11-29T14:59:05.663Z,2.71
2018-11-29T15:01:32.910Z,2.74
2018-11-29T15:04:00.158Z,2.82
2018-11-29T15:06:27.351Z,2.75
2018-11-29T15:08:54.515Z,2.61
2018-11-29T15:11:21.729Z,2.69
2018-11-29T15:13:48.971Z,2.64
2018-11-29T15:16:16.123Z,2.68
2018-11-29T15:18:43.269Z,2.68
2018-11-29T15:21:10.535Z,2.57
2018-11-29T15:23:37.796Z,2.61
2018-11-29T15:26:05.162Z,2.59
2018-11-29T15:28:32.378Z,2.64
2018-11-29T15:30:59.548Z,2.57
2018-11-29T15:33:26.741Z,2.56
2018-11-29T15:35:53.993Z,2.50
2018-11-29T15:38:21.175Z,2.52
2018-11-29T15:40:48.376Z,2.45
2018-11-29T15:43:15.755Z,2.52
2018-11-29T15:45:43.023Z,2.50
2018-11-29T15:48:10.207Z,2.46
2018-11-29T15:50:37.428Z,2.46
2018-11-29T15:53:05.704Z,2.43
2018-11-29T15:55:32.914Z,2.43
2018-11-29T15:58:00.155Z,2.48
2018-11-29T16:00:28.307Z,2.31
2018-11-29T16:02:56.743Z,2.34
2018-11-29T16:05:24.062Z,2.30
2018-11-29T16:07:51.312Z,2.40
2018-11-29T16:10:20.547Z,2.39
2018-11-29T16:12:47.735Z,2.27
2018-11-29T16:15:16.691Z,2.29
2018-11-29T16:17:44.306Z,2.24
2018-11-29T16:20:15.683Z,2.29
2018-11-29T16:22:42.959Z,2.33
2018-11-29T16:25:10.771Z,2.30
2018-11-29T16:27:38.039Z,2.34
2018-11-29T16:30:21.833Z,2.24
2018-11-29T16:32:49.079Z,2.25
2018-11-29T16:35:16.379Z,2.16
2018-11-29T16:37:43.538Z,2.22
2018-11-29T16:40:10.962Z,2.14
2018-11-29T16:42:38.159Z,2.16
2018-11-29T16:45:11.022Z,2.18
2018-11-29T16:47:38.675Z,2.22
2018-11-29T16:50:08.266Z,2.16
2018-11-29T16:52:35.520Z,2.15
2018-11-29T16:55:02.703Z,2.07
2018-11-29T16:57:29.855Z,2.05
2018-11-29T16:59:57.123Z,1.97
2018-11-29T17:02:24.352Z,1.95
2018-11-29T17:04:51.494Z,2.12
2018-11-29T17:07:18.726Z,1.96
2018-11-29T17:09:45.860Z,1.93
2018-11-29T17:12:13.046Z,1.96
2018-11-29T17:14:40.247Z,1.92
2018-11-29T17:17:07.446Z,1.95
2018-11-29T17:19:34.595Z,1.88
2018-11-29T17:22:01.796Z,1.91
2018-11-29T17:24:28.970Z,1.92
2018-11-29T17:26:56.148Z,1.80
2018-11-29T17:29:23.462Z,1.76
2018-11-29T17:31:50.640Z,1.69
2018-11-29T17:34:17.762Z,1.66
2018-11-29T17:36:44.930Z,1.76
2018-11-29T17:39:12.334Z,1.59
2018-11-29T17:41:39.510Z,1.56
2018-11-29T17:44:06.700Z,1.52
2018-11-29T17:46:33.831Z,1.58
2018-11-29T17:49:00.982Z,1.69
2018-11-29T17:51:28.206Z,1.48
2018-11-29T17:53:55.351Z,1.48
2018-11-29T17:56:22.520Z,1.64
2018-11-29T17:58:49.725Z,1.61
2018-11-29T18:01:16.893Z,1.55
2018-11-29T18:03:44.085Z,1.52
2018-11-29T18:06:11.266Z,1.59
2018-11-29T18:08:38.500Z,1.43
2018-11-29T18:11:06.690Z,1.51
2018-11-29T18:13:35.564Z,1.45
2018-11-29T18:16:02.763Z,1.54
2018-11-29T18:18:29.915Z,1.47
2018-11-29T18:20:57.124Z,1.51
2018-11-29T18:23:24.255Z,1.42
2018-11-29T18:25:51.416Z,1.35
2018-11-29T18:28:18.611Z,1.35
2018-11-29T18:30:45.808Z,1.31
2018-11-29T18:33:12.973Z,1.31
2018-11-29T18:35:40.286Z,1.35
2018-11-29T18:38:07.970Z,1.20
2018-11-29T18:40:35.307Z,1.21
2018-11-29T18:43:03.760Z,1.30
2018-11-29T18:45:29.938Z,1.26
2018-11-29T18:47:57.076Z,1.25
2018-11-29T18:50:25.340Z,1.18
2018-11-29T18:52:52.674Z,1.23
2018-11-29T18:55:21.774Z,1.24
2018-11-29T18:57:49.028Z,1.29
2018-11-29T19:00:24.189Z,1.16
2018-11-29T19:02:56.776Z,1.24
2018-11-29T19:05:18.610Z,1.08
2018-11-29T19:07:45.867Z,1.11
2018-11-29T19:10:15.457Z,1.16
2018-11-29T19:12:50.238Z,1.07
2018-11-29T19:15:17.548Z,1.04
2018-11-29T19:17:44.787Z,1.08
2018-11-29T19:20:13.444Z,1.04
2018-11-29T19:22:40.578Z,0.97
2018-11-29T19:25:09.482Z,1.06
2018-11-29T19:27:36.810Z,0.95
2018-11-29T19:30:06.839Z,0.88
2018-11-29T19:32:33.967Z,0.87
2018-11-29T19:35:01.152Z,0.87
2018-11-29T19:37:28.372Z,0.90
2018-11-29T19:39:55.511Z,0.84
2018-11-29T19:42:22.663Z,0.92
2018-11-29T19:44:49.957Z,0.91
2018-11-29T19:47:17.131Z,0.92
2018-11-29T19:49:44.263Z,0.83
2018-11-29T19:52:11.472Z,0.86
2018-11-29T19:54:38.624Z,0.79
2018-11-29T19:57:05.779Z,0.87
2018-11-29T19:59:33.048Z,0.73
2018-11-29T20:02:00.231Z,0.62
2018-11-29T20:04:27.375Z,0.67
2018-11-29T20:06:54.592Z,0.67
2018-11-29T20:09:21.726Z,0.74
2018-11-29T20:11:48.867Z,0.74
2018-11-29T20:14:16.137Z,0.72
2018-11-29T20:16:43.307Z,0.74
2018-11-29T20:19:10.450Z,0.72
2018-11-29T20:21:37.668Z,0.78
2018-11-29T20:24:05.035Z,0.65
2018-11-29T20:26:32.176Z,0.74
2018-11-29T20:28:59.472Z,0.63
2018-11-29T20:31:26.650Z,0.75
2018-11-29T20:33:53.810Z,0.65
2018-11-29T20:36:21.071Z,0.59
2018-11-29T20:38:48.235Z,0.61
2018-11-29T20:41:15.395Z,0.63
2018-11-29T20:43:42.631Z,0.57
2018-11-29T20:46:09.786Z,0.49
2018-11-29T20:48:37.023Z,0.61
2018-11-29T20:51:04.268Z,0.62
2018-11-29T20:53:33.833Z,0.69
2018-11-29T20:56:01.234Z,0.70
2018-11-29T20:58:28.478Z,0.67
2018-11-29T21:00:55.643Z,0.60
2018-11-29T21:03:22.795Z,0.62
2018-11-29T21:05:50.047Z,0.45
2018-11-29T21:08:17.211Z,0.46
2018-11-29T21:10:44.396Z,0.44
2018-11-29T21:13:11.627Z,0.42
2018-11-29T21:15:40.967Z,0.46
2018-11-29T21:18:09.606Z,0.41
2018-11-29T21:20:37.057Z,0.43
2018-11-29T21:23:05.564Z,0.45
2018-11-29T21:25:32.759Z,0.38
2018-11-29T21:27:59.955Z,0.49
2018-11-29T21:30:27.201Z,0.45
2018-11-29T21:32:54.365Z,0.35
2018-11-29T21:35:22.310Z,0.43
2018-11-29T21:37:50.403Z,0.48
2018-11-29T21:40:25.299Z,0.53
2018-11-29T21:42:52.527Z,0.52
2018-11-29T21:45:19.701Z,0.53
2018-11-29T21:47:46.898Z,0.50
2018-11-29T21:50:14.076Z,0.53
2018-11-29T21:52:41.271Z,0.73
2018-11-29T21:55:08.557Z,0.54
2018-11-29T21:57:35.770Z,0.59
2018-11-29T22:00:11.105Z,0.59
2018-11-29T22:02:41.689Z,0.70
2018-11-29T22:05:05.854Z,0.60
2018-11-29T22:07:33.064Z,0.66
2018-11-29T22:10:00.228Z,0.76
2018-11-29T22:12:27.388Z,0.74
2018-11-29T22:14:54.603Z,0.79
2018-11-29T22:17:21.774Z,0.68
2018-11-29T22:19:48.947Z,0.69
2018-11-29T22:22:16.155Z,0.84
2018-11-29T22:24:43.303Z,0.65
2018-11-29T22:27:10.439Z,0.65
2018-11-29T22:29:37.759Z,0.80
2018-11-29T22:32:05.439Z,0.67
2018-11-29T22:34:32.658Z,0.76
2018-11-29T22:36:59.873Z,0.73
2018-11-29T22:39:27.013Z,0.71
2018-11-29T22:41:54.172Z,0.89
2018-11-29T22:44:21.385Z,0.80
2018-11-29T22:46:48.523Z,0.95
2018-11-29T22:49:15.671Z,0.72
2018-11-29T22:51:42.900Z,0.81
2018-11-29T22:54:10.101Z,0.70
2018-11-29T22:56:37.457Z,0.81
2018-11-29T22:59:04.672Z,0.69
2018-11-29T23:01:31.923Z,0.77
2018-11-29T23:03:59.067Z,0.78
2018-11-29T23:06:26.471Z,0.82
2018-11-29T23:08:53.669Z,0.94
2018-11-29T23:11:20.811Z,0.97
2018-11-29T23:13:47.995Z,0.99
2018-11-29T23:16:15.215Z,0.96
2018-11-29T23:18:42.579Z,0.93
2018-11-29T23:21:09.823Z,0.94
2018-11-29T23:23:36.990Z,1.02
2018-11-29T23:26:04.267Z,1.05
2018-11-29T23:28:31.627Z,1.05
2018-11-29T23:30:58.869Z,1.09
2018-11-29T23:33:26.028Z,1.09
2018-11-29T23:35:53.248Z,1.18
2018-11-29T23:38:20.531Z,1.27
2018-11-29T23:40:47.893Z,1.16
2018-11-29T23:43:15.142Z,0.97
2018-11-29T23:45:42.292Z,1.01
2018-11-29T23:48:09.512Z,1.03
2018-11-29T23:50:36.762Z,0.96
2018-11-29T23:53:04.139Z,0.93
2018-11-29T23:55:32.431Z,0.94
2018-11-29T23:57:59.657Z,0.90
